Time;durP1;ratioP1;P1;durP2;ratioP2;P2;SDS_P1;SDS_P2;PMS_P1;PMS_P2;Temp;Humidity;BMP_temperature;BMP_pressure;BME280_temperature;BME280_humidity;BME280_pressure;Samples;Min_cycle;Max_cycle;Signal;HPM_P1;HPM_P2
2022/07/05 00:02:13;;;;;;;1.90;1.70;;;;;;;;;;4994076;28;20197;-75
2022/07/05 00:04:41;;;;;;;4.23;2.23;;;;;;;;;;4993776;28;20225;-75
2022/07/05 00:07:21;;;;;;;4.17;1.90;;;;;;;;;;4994319;28;20662;-75
2022/07/05 00:09:51;;;;;;;2.07;1.80;;;;;;;;;;4994329;28;20630;-75
2022/07/05 00:12:20;;;;;;;2.30;2.10;;;;;;;;;;4993060;28;20205;-75
2022/07/05 00:14:49;;;;;;;2.83;1.97;;;;;;;;;;4993833;28;20225;-75
2022/07/05 00:17:17;;;;;;;2.00;1.77;;;;;;;;;;4992792;28;20251;-75
2022/07/05 00:19:46;;;;;;;1.90;1.80;;;;;;;;;;4993543;28;20208;-75
2022/07/05 00:22:16;;;;;;;3.43;1.87;;;;;;;;;;4993776;28;20215;-75
2022/07/05 00:24:44;;;;;;;3.87;1.80;;;;;;;;;;4993617;28;20260;-75
2022/07/05 00:27:13;;;;;;;1.87;1.70;;;;;;;;;;4993470;28;20229;-75
2022/07/05 00:29:42;;;;;;;4.50;1.73;;;;;;;;;;4993413;28;20220;-75
2022/07/05 00:32:11;;;;;;;2.63;1.80;;;;;;;;;;4982076;28;20210;-75
2022/07/05 00:34:39;;;;;;;2.63;1.93;;;;;;;;;;4977561;28;20233;-75
2022/07/05 00:37:08;;;;;;;2.77;2.10;;;;;;;;;;5013285;28;20208;-75
2022/07/05 00:39:38;;;;;;;2.20;2.00;;;;;;;;;;5012900;28;20666;-75
2022/07/05 00:42:07;;;;;;;2.80;1.83;;;;;;;;;;5013376;28;20223;-75
2022/07/05 00:44:37;;;;;;;2.27;1.77;;;;;;;;;;5012947;28;20711;-75
2022/07/05 00:47:06;;;;;;;2.83;1.87;;;;;;;;;;4997537;28;20219;-75
2022/07/05 00:49:35;;;;;;;2.67;2.10;;;;;;;;;;4994977;28;20205;-75
2022/07/05 00:52:04;;;;;;;3.10;2.00;;;;;;;;;;4996488;28;20209;-75
2022/07/05 00:54:49;;;;;;;2.10;1.90;;;;;;;;;;4997189;28;20820;-75
2022/07/05 00:57:19;;;;;;;3.03;2.13;;;;;;;;;;4996875;28;20205;-75
2022/07/05 00:59:48;;;;;;;2.87;2.03;;;;;;;;;;4997138;28;20213;-76
2022/07/05 01:02:17;;;;;;;2.87;2.10;;;;;;;;;;4996623;28;20212;-76
2022/07/05 01:04:48;;;;;;;2.93;2.10;;;;;;;;;;4996359;28;20241;-75
2022/07/05 01:07:17;;;;;;;3.23;2.30;;;;;;;;;;4996643;28;20205;-75
2022/07/05 01:09:46;;;;;;;2.43;2.07;;;;;;;;;;4996736;28;20205;-75
2022/07/05 01:12:16;;;;;;;3.33;2.30;;;;;;;;;;4996846;28;20216;-75
2022/07/05 01:14:45;;;;;;;3.27;2.20;;;;;;;;;;4995440;28;20229;-75
2022/07/05 01:17:15;;;;;;;2.97;2.33;;;;;;;;;;4996450;28;20240;-75
2022/07/05 01:19:43;;;;;;;3.57;2.27;;;;;;;;;;4997597;28;20292;-75
2022/07/05 01:22:17;;;;;;;3.17;2.30;;;;;;;;;;4997179;28;20212;-75
2022/07/05 01:24:48;;;;;;;2.30;2.10;;;;;;;;;;4997184;28;20591;-75
2022/07/05 01:27:16;;;;;;;2.67;2.43;;;;;;;;;;4997025;28;20646;-75
2022/07/05 01:29:45;;;;;;;2.50;2.23;;;;;;;;;;4995747;28;20263;-75
2022/07/05 01:32:14;;;;;;;2.83;2.13;;;;;;;;;;4996753;28;20667;-75
2022/07/05 01:34:42;;;;;;;2.17;2.07;;;;;;;;;;4996244;28;20283;-75
2022/07/05 01:37:11;;;;;;;3.20;2.10;;;;;;;;;;4996718;28;20205;-75
2022/07/05 01:39:40;;;;;;;2.37;2.10;;;;;;;;;;4996003;28;20231;-75
2022/07/05 01:42:10;;;;;;;3.30;2.20;;;;;;;;;;4996586;28;20586;-75
2022/07/05 01:44:39;;;;;;;2.50;2.30;;;;;;;;;;4996479;28;20224;-75
2022/07/05 01:47:09;;;;;;;2.43;2.10;;;;;;;;;;4996202;28;20292;-75
2022/07/05 01:49:40;;;;;;;3.87;2.60;;;;;;;;;;4995515;28;20297;-75
2022/07/05 01:52:10;;;;;;;2.80;2.27;;;;;;;;;;4995813;28;20201;-75
2022/07/05 01:54:40;;;;;;;2.43;2.23;;;;;;;;;;4996286;28;20646;-75
2022/07/05 01:57:10;;;;;;;2.87;2.40;;;;;;;;;;4995696;28;20674;-75
2022/07/05 01:59:39;;;;;;;4.00;2.40;;;;;;;;;;4994282;28;20208;-76
2022/07/05 02:02:08;;;;;;;3.10;2.40;;;;;;;;;;4996134;28;20213;-75
2022/07/05 02:04:37;;;;;;;3.73;2.60;;;;;;;;;;4995895;28;20237;-75
2022/07/05 02:07:06;;;;;;;3.50;2.50;;;;;;;;;;4995888;28;20215;-75
2022/07/05 02:09:35;;;;;;;3.40;2.40;;;;;;;;;;4995840;28;20312;-75
2022/07/05 02:12:04;;;;;;;2.70;2.50;;;;;;;;;;4996357;28;20228;-75
2022/07/05 02:14:35;;;;;;;2.70;2.50;;;;;;;;;;4995571;28;20221;-75
2022/07/05 02:17:03;;;;;;;3.10;2.43;;;;;;;;;;4995613;28;20276;-75
2022/07/05 02:19:32;;;;;;;2.80;2.50;;;;;;;;;;4987910;28;20276;-75
2022/07/05 02:22:01;;;;;;;6.17;2.87;;;;;;;;;;4982018;28;20200;-75
2022/07/05 02:24:30;;;;;;;3.83;2.80;;;;;;;;;;5015100;28;20224;-75
2022/07/05 02:26:59;;;;;;;2.80;2.60;;;;;;;;;;5015733;28;20201;-75
2022/07/05 02:29:27;;;;;;;3.30;3.00;;;;;;;;;;5008609;28;20248;-75
2022/07/05 02:31:57;;;;;;;3.30;3.00;;;;;;;;;;4996060;28;20574;-75
2022/07/05 02:34:26;;;;;;;2.87;2.57;;;;;;;;;;4995343;28;20316;-75
2022/07/05 02:36:54;;;;;;;4.13;2.77;;;;;;;;;;5014569;28;20239;-75
2022/07/05 02:39:22;;;;;;;3.23;2.73;;;;;;;;;;5008386;28;20209;-75
2022/07/05 02:41:51;;;;;;;3.37;3.07;;;;;;;;;;4996023;28;20216;-75
2022/07/05 02:44:19;;;;;;;3.20;3.00;;;;;;;;;;4995132;28;20208;-75
2022/07/05 02:46:48;;;;;;;3.83;2.90;;;;;;;;;;5003096;28;20212;-77
2022/07/05 02:49:17;;;;;;;4.07;3.10;;;;;;;;;;4995721;28;20243;-75
2022/07/05 02:51:46;;;;;;;4.37;3.37;;;;;;;;;;4995622;28;20623;-75
2022/07/05 02:54:14;;;;;;;4.77;3.50;;;;;;;;;;4995508;28;20217;-75
2022/07/05 02:56:43;;;;;;;3.60;3.30;;;;;;;;;;4995205;28;20287;-75
2022/07/05 02:59:11;;;;;;;3.90;3.50;;;;;;;;;;4994197;28;20213;-75
2022/07/05 03:01:41;;;;;;;4.80;3.30;;;;;;;;;;4995569;28;20205;-75
2022/07/05 03:04:09;;;;;;;4.07;3.03;;;;;;;;;;4994250;28;20303;-75
2022/07/05 03:06:40;;;;;;;3.40;3.10;;;;;;;;;;4994929;28;20678;-75
2022/07/05 03:09:08;;;;;;;3.67;3.03;;;;;;;;;;4994061;28;20204;-75
2022/07/05 03:11:37;;;;;;;4.90;3.10;;;;;;;;;;4994091;28;20232;-75
2022/07/05 03:14:06;;;;;;;4.10;2.80;;;;;;;;;;4994604;28;20201;-75
2022/07/05 03:16:34;;;;;;;3.97;3.00;;;;;;;;;;4995252;28;20712;-75
2022/07/05 03:19:03;;;;;;;3.50;3.20;;;;;;;;;;4993842;28;20252;-75
2022/07/05 03:21:31;;;;;;;5.30;3.17;;;;;;;;;;4994942;28;20259;-75
2022/07/05 03:24:01;;;;;;;2.80;2.60;;;;;;;;;;4994676;28;20205;-75
2022/07/05 03:26:30;;;;;;;3.20;2.80;;;;;;;;;;4994956;28;20308;-75
2022/07/05 03:28:58;;;;;;;4.63;3.17;;;;;;;;;;4994523;28;20205;-75
2022/07/05 03:31:27;;;;;;;4.13;2.93;;;;;;;;;;4994758;28;20665;-75
2022/07/05 03:33:56;;;;;;;5.17;3.10;;;;;;;;;;4995059;28;20209;-75
2022/07/05 03:36:25;;;;;;;4.20;3.20;;;;;;;;;;4993850;28;20235;-75
2022/07/05 03:38:53;;;;;;;3.77;3.47;;;;;;;;;;4994321;28;20206;-75
2022/07/05 03:41:23;;;;;;;4.60;3.10;;;;;;;;;;4993153;28;20207;-75
2022/07/05 03:43:52;;;;;;;6.53;3.63;;;;;;;;;;4994522;28;20213;-75
2022/07/05 03:46:20;;;;;;;3.77;3.47;;;;;;;;;;4994594;28;20649;-75
2022/07/05 03:48:49;;;;;;;4.90;3.60;;;;;;;;;;4994376;28;20244;-75
2022/07/05 03:51:17;;;;;;;4.03;3.60;;;;;;;;;;4993908;28;20288;-75
2022/07/05 03:53:46;;;;;;;4.67;3.60;;;;;;;;;;4994440;28;20213;-75
2022/07/05 03:56:19;;;;;;;4.23;3.83;;;;;;;;;;4994219;28;20233;-75
2022/07/05 03:58:50;;;;;;;4.00;3.43;;;;;;;;;;4994084;28;20208;-75
2022/07/05 04:01:18;;;;;;;5.07;3.43;;;;;;;;;;4993947;28;20224;-75
2022/07/05 04:03:47;;;;;;;4.30;3.90;;;;;;;;;;4993861;28;20308;-75
2022/07/05 04:06:16;;;;;;;4.73;3.53;;;;;;;;;;4993865;28;20229;-75
2022/07/05 04:08:44;;;;;;;6.50;3.90;;;;;;;;;;4994095;28;20201;-75
2022/07/05 04:11:15;;;;;;;4.17;3.20;;;;;;;;;;4993516;28;20209;-75
2022/07/05 04:13:44;;;;;;;4.20;3.80;;;;;;;;;;4994707;28;20554;-75
2022/07/05 04:16:14;;;;;;;4.50;3.57;;;;;;;;;;4994056;28;20233;-75
2022/07/05 04:18:42;;;;;;;4.17;3.77;;;;;;;;;;4993958;28;20205;-75
2022/07/05 04:21:11;;;;;;;3.90;3.60;;;;;;;;;;4993802;28;20604;-75
2022/07/05 04:23:40;;;;;;;4.93;3.63;;;;;;;;;;4995888;28;20208;-75
2022/07/05 04:26:08;;;;;;;5.60;3.80;;;;;;;;;;4997720;28;20221;-75
2022/07/05 04:28:37;;;;;;;5.67;3.60;;;;;;;;;;4997643;28;20209;-75
2022/07/05 04:31:05;;;;;;;5.60;3.57;;;;;;;;;;4997046;28;20201;-75
2022/07/05 04:33:35;;;;;;;4.60;3.60;;;;;;;;;;4997887;28;20209;-75
2022/07/05 04:36:04;;;;;;;5.80;3.90;;;;;;;;;;5010445;28;20615;-75
2022/07/05 04:38:33;;;;;;;4.30;3.87;;;;;;;;;;5016678;28;20204;-75
2022/07/05 04:41:01;;;;;;;7.40;4.30;;;;;;;;;;5003548;28;20205;-75
2022/07/05 04:43:30;;;;;;;5.07;3.97;;;;;;;;;;4996900;28;20205;-75
2022/07/05 04:45:58;;;;;;;5.03;4.17;;;;;;;;;;4997263;28;20222;-75
2022/07/05 04:48:27;;;;;;;4.27;3.87;;;;;;;;;;4997505;28;20240;-75
2022/07/05 04:50:57;;;;;;;4.20;3.90;;;;;;;;;;4996919;28;20209;-75
2022/07/05 04:53:25;;;;;;;4.87;3.90;;;;;;;;;;4997104;28;20213;-75
2022/07/05 04:55:53;;;;;;;4.20;3.80;;;;;;;;;;4997019;28;20299;-75
2022/07/05 04:58:22;;;;;;;4.33;3.90;;;;;;;;;;4997014;28;20224;-75
2022/07/05 05:00:50;;;;;;;4.97;4.00;;;;;;;;;;4985976;28;20210;-75
2022/07/05 05:03:20;;;;;;;5.63;4.17;;;;;;;;;;4977507;28;20214;-75
2022/07/05 05:05:49;;;;;;;4.87;3.90;;;;;;;;;;4996835;28;20567;-75
2022/07/05 05:08:19;;;;;;;6.17;3.50;;;;;;;;;;4996820;28;20206;-76
2022/07/05 05:10:47;;;;;;;4.57;3.33;;;;;;;;;;4995905;28;20205;-76
2022/07/05 05:13:15;;;;;;;4.93;3.30;;;;;;;;;;4996381;28;20205;-75
2022/07/05 05:15:44;;;;;;;3.73;2.87;;;;;;;;;;4996512;28;20236;-76
2022/07/05 05:18:13;;;;;;;6.23;2.70;;;;;;;;;;4996580;28;20225;-75
2022/07/05 05:20:41;;;;;;;2.70;2.50;;;;;;;;;;4996024;28;20209;-75
2022/07/05 05:23:10;;;;;;;3.50;3.20;;;;;;;;;;4996716;28;20567;-76
2022/07/05 05:25:39;;;;;;;4.73;3.30;;;;;;;;;;4996170;28;20560;-75
2022/07/05 05:28:08;;;;;;;4.27;2.73;;;;;;;;;;4996339;28;20240;-75
2022/07/05 05:30:36;;;;;;;4.67;3.00;;;;;;;;;;4995707;28;20205;-75
2022/07/05 05:33:05;;;;;;;3.63;3.00;;;;;;;;;;4996465;28;20704;-76
2022/07/05 05:35:33;;;;;;;4.47;3.10;;;;;;;;;;4991200;28;20225;-75
2022/07/05 05:38:02;;;;;;;3.73;3.00;;;;;;;;;;4996324;28;20229;-75
2022/07/05 05:40:30;;;;;;;2.83;2.63;;;;;;;;;;4994255;28;20210;-76
2022/07/05 05:43:00;;;;;;;4.00;2.70;;;;;;;;;;4996122;28;20590;-76
2022/07/05 05:45:29;;;;;;;5.07;2.87;;;;;;;;;;4994486;28;20704;-76
2022/07/05 05:47:58;;;;;;;3.30;2.87;;;;;;;;;;4995610;28;20256;-76
2022/07/05 05:50:28;;;;;;;4.33;2.80;;;;;;;;;;4996016;28;20681;-76
2022/07/05 05:52:56;;;;;;;4.17;2.90;;;;;;;;;;4995341;28;20227;-77
2022/07/05 05:55:26;;;;;;;5.10;2.70;;;;;;;;;;4995637;28;20227;-75
2022/07/05 05:57:54;;;;;;;6.03;2.43;;;;;;;;;;4995631;28;20632;-75
2022/07/05 06:00:25;;;;;;;3.27;2.90;;;;;;;;;;4995560;28;20201;-76
2022/07/05 06:02:56;;;;;;;3.73;2.23;;;;;;;;;;4995241;28;20364;-76
2022/07/05 06:05:30;;;;;;;3.72;2.42;;;;;;;;;;5003972;28;20224;-77
2022/07/05 06:07:59;;;;;;;4.93;2.67;;;;;;;;;;5014764;28;20220;-75
2022/07/05 06:10:28;;;;;;;3.00;2.20;;;;;;;;;;5015092;28;20204;-76
2022/07/05 06:12:58;;;;;;;2.40;2.20;;;;;;;;;;5001321;28;20208;-76
2022/07/05 06:15:28;;;;;;;3.58;2.38;;;;;;;;;;4995298;28;20249;-76
2022/07/05 06:17:56;;;;;;;4.55;2.30;;;;;;;;;;4995782;28;20228;-76
2022/07/05 06:20:25;;;;;;;2.80;1.90;;;;;;;;;;4995515;28;20621;-76
2022/07/05 06:22:54;;;;;;;6.40;2.28;;;;;;;;;;4994870;28;20217;-75
2022/07/05 06:25:23;;;;;;;4.70;2.10;;;;;;;;;;4995304;28;20228;-76
2022/07/05 06:27:53;;;;;;;2.33;2.00;;;;;;;;;;4995761;28;20266;-76
2022/07/05 06:30:22;;;;;;;2.83;1.73;;;;;;;;;;4995046;28;20216;-76
2022/07/05 06:32:52;;;;;;;3.50;1.83;;;;;;;;;;4993408;28;20197;-77
2022/07/05 06:35:21;;;;;;;4.32;1.88;;;;;;;;;;4995444;28;20295;-76
2022/07/05 06:37:51;;;;;;;4.55;1.88;;;;;;;;;;4995141;28;20225;-77
2022/07/05 06:40:21;;;;;;;3.40;1.98;;;;;;;;;;4994748;28;20209;-76
2022/07/05 06:42:49;;;;;;;4.68;1.92;;;;;;;;;;4983837;28;20216;-76
2022/07/05 06:45:18;;;;;;;3.22;2.00;;;;;;;;;;4993981;28;20224;-76
2022/07/05 06:47:46;;;;;;;2.80;1.67;;;;;;;;;;4990447;28;20259;-76
2022/07/05 06:50:16;;;;;;;3.60;1.67;;;;;;;;;;4993155;28;20209;-77
2022/07/05 06:52:45;;;;;;;5.68;1.98;;;;;;;;;;4994915;28;20673;-77
2022/07/05 06:55:13;;;;;;;2.80;1.75;;;;;;;;;;4994186;28;20229;-76
2022/07/05 06:57:43;;;;;;;3.50;1.50;;;;;;;;;;4994511;28;20221;-75
2022/07/05 07:00:31;;;;;;;2.22;1.80;;;;;;;;;;4994636;28;20263;-76
2022/07/05 07:03:20;;;;;;;4.00;1.63;;;;;;;;;;4994751;28;20295;-76
2022/07/05 07:06:11;;;;;;;1.85;1.30;;;;;;;;;;5002871;28;20639;-76
2022/07/05 07:11:25;;;;;;;3.92;1.80;;;;;;;;;;4994412;28;20200;-73
2022/07/05 07:13:54;;;;;;;1.67;1.50;;;;;;;;;;4993590;28;20193;-73
2022/07/05 07:16:22;;;;;;;3.13;1.60;;;;;;;;;;4991854;28;20232;-73
2022/07/05 07:18:51;;;;;;;2.50;1.80;;;;;;;;;;4978294;28;20221;-73
2022/07/05 07:21:41;;;;;;;6.65;1.60;;;;;;;;;;4995624;28;20228;-73
2022/07/05 07:24:10;;;;;;;2.90;1.40;;;;;;;;;;4994900;28;20248;-74
2022/07/05 07:29:25;;;;;;;6.47;1.63;;;;;;;;;;4983390;28;20680;-73
2022/07/05 07:31:53;;;;;;;14.55;2.30;;;;;;;;;;4995124;28;20643;-73
2022/07/05 07:34:22;;;;;;;5.30;1.70;;;;;;;;;;4994588;28;20216;-73
2022/07/05 07:36:52;;;;;;;2.45;1.42;;;;;;;;;;4975034;28;20208;-73
2022/07/05 07:39:21;;;;;;;2.40;1.70;;;;;;;;;;4980361;28;20237;-74
2022/07/05 07:41:48;;;;;;;4.13;1.52;;;;;;;;;;4994803;28;20535;-73
2022/07/05 07:44:17;;;;;;;2.63;1.60;;;;;;;;;;4993152;28;20568;-73
2022/07/05 07:46:46;;;;;;;5.30;1.75;;;;;;;;;;4994513;28;20576;-73
2022/07/05 07:49:14;;;;;;;2.17;1.63;;;;;;;;;;4994583;28;20201;-73
2022/07/05 07:51:43;;;;;;;11.15;2.30;;;;;;;;;;4993782;28;20670;-73
2022/07/05 07:54:13;;;;;;;17.00;2.10;;;;;;;;;;4993207;28;20221;-73
2022/07/05 07:56:42;;;;;;;11.40;1.92;;;;;;;;;;4994059;28;20205;-73
2022/07/05 07:59:11;;;;;;;5.20;1.30;;;;;;;;;;4995971;28;20224;-73
2022/07/05 08:01:39;;;;;;;3.13;1.23;;;;;;;;;;4994511;28;20205;-73
2022/07/05 08:04:13;;;;;;;3.85;1.40;;;;;;;;;;4994146;28;20291;-73
2022/07/05 08:06:42;;;;;;;4.82;1.42;;;;;;;;;;4993704;28;20561;-72
2022/07/05 08:09:12;;;;;;;2.92;1.25;;;;;;;;;;4995097;28;20200;-73
2022/07/05 08:11:44;;;;;;;3.08;1.23;;;;;;;;;;4995828;28;20292;-73
2022/07/05 08:14:13;;;;;;;2.33;1.30;;;;;;;;;;4991894;28;20208;-73
2022/07/05 08:16:41;;;;;;;1.10;0.90;;;;;;;;;;4996452;28;20208;-73
2022/07/05 08:22:03;;;;;;;1.23;1.00;;;;;;;;;;4995319;28;20263;-73
2022/07/05 08:24:33;;;;;;;4.47;1.08;;;;;;;;;;4997421;28;20248;-72
2022/07/05 08:27:01;;;;;;;1.90;0.85;;;;;;;;;;4997703;28;20205;-72
2022/07/05 08:29:30;;;;;;;2.35;1.30;;;;;;;;;;4995734;28;20248;-73
2022/07/05 08:31:58;;;;;;;6.03;1.98;;;;;;;;;;4997488;28;20220;-72
2022/07/05 08:34:26;;;;;;;3.50;1.20;;;;;;;;;;4997724;28;20290;-73
2022/07/05 08:36:55;;;;;;;2.42;1.00;;;;;;;;;;5017181;28;20276;-73
2022/07/05 08:39:23;;;;;;;2.40;1.08;;;;;;;;;;5001043;28;20213;-74
2022/07/05 08:41:53;;;;;;;2.20;1.10;;;;;;;;;;4995425;28;20208;-73
2022/07/05 08:44:23;;;;;;;2.38;1.05;;;;;;;;;;4997048;28;20217;-73
2022/07/05 08:46:53;;;;;;;2.42;1.30;;;;;;;;;;4997266;28;20201;-73
2022/07/05 08:49:23;;;;;;;1.48;0.77;;;;;;;;;;4997059;28;20201;-73
2022/07/05 08:51:52;;;;;;;2.17;1.10;;;;;;;;;;4996621;28;20201;-73
2022/07/05 08:54:20;;;;;;;1.63;1.10;;;;;;;;;;4996885;28;20256;-74
2022/07/05 08:56:49;;;;;;;2.70;1.20;;;;;;;;;;4996797;28;20209;-73
2022/07/05 08:59:38;;;;;;;1.80;1.10;;;;;;;;;;4996724;28;20648;-73
2022/07/05 09:02:08;;;;;;;0.80;0.80;;;;;;;;;;4995820;28;20220;-73
2022/07/05 09:04:38;;;;;;;1.40;0.80;;;;;;;;;;4996543;28;20252;-72
2022/07/05 09:07:07;;;;;;;1.60;0.90;;;;;;;;;;4998894;28;20201;-73
2022/07/05 09:09:42;;;;;;;1.35;1.00;;;;;;;;;;5015217;28;20578;-73
2022/07/05 09:12:13;;;;;;;2.80;0.90;;;;;;;;;;4999999;28;20251;-73
2022/07/05 09:14:58;;;;;;;1.08;0.98;;;;;;;;;;4996821;28;20563;-75
2022/07/05 09:17:28;;;;;;;3.33;1.23;;;;;;;;;;4994995;28;20654;-73
2022/07/05 09:20:10;;;;;;;5.40;4.90;;;;;;;;;;4995409;28;20276;-73
2022/07/05 09:22:48;;;;;;;7.95;5.60;;;;;;;;;;4995837;28;20205;-72
2022/07/05 09:25:18;;;;;;;1.90;1.25;;;;;;;;;;4994215;28;20224;-73
2022/07/05 09:27:50;;;;;;;1.60;1.30;;;;;;;;;;4995759;28;20208;-72
2022/07/05 09:30:26;;;;;;;4.63;1.90;;;;;;;;;;4996368;28;20197;-73
2022/07/05 09:33:01;;;;;;;1.20;0.95;;;;;;;;;;4996533;28;20661;-72
2022/07/05 09:35:30;;;;;;;1.45;1.02;;;;;;;;;;5004377;28;20282;-73
2022/07/05 09:37:58;;;;;;;1.20;1.10;;;;;;;;;;5012133;28;20217;-72
2022/07/05 09:40:27;;;;;;;1.27;0.93;;;;;;;;;;4995247;28;20216;-73
2022/07/05 09:43:11;;;;;;;1.17;1.00;;;;;;;;;;4995383;28;20208;-72
2022/07/05 09:45:41;;;;;;;2.10;1.10;;;;;;;;;;4995811;28;20227;-72
2022/07/05 09:48:09;;;;;;;2.38;0.88;;;;;;;;;;4994666;28;20264;-73
2022/07/05 09:51:09;;;;;;;5.25;1.05;;;;;;;;;;4995442;28;20200;-73
2022/07/05 09:53:58;;;;;;;4.55;1.20;;;;;;;;;;4995476;28;20209;-73
2022/07/05 09:56:29;;;;;;;2.53;1.20;;;;;;;;;;4996355;28;20225;-73
2022/07/05 09:59:13;;;;;;;1.48;1.10;;;;;;;;;;4976918;28;20206;-74
2022/07/05 10:01:43;;;;;;;1.50;1.00;;;;;;;;;;4992679;28;20209;-74
2022/07/05 10:04:11;;;;;;;1.58;0.88;;;;;;;;;;4995566;28;20641;-73
2022/07/05 10:06:40;;;;;;;1.60;0.80;;;;;;;;;;4995233;28;20217;-73
2022/07/05 10:09:09;;;;;;;2.13;0.90;;;;;;;;;;4995370;28;20255;-74
2022/07/05 10:11:40;;;;;;;3.33;1.25;;;;;;;;;;4994776;28;20233;-72
2022/07/05 10:14:12;;;;;;;0.77;0.77;;;;;;;;;;4993841;28;20202;-73
2022/07/05 10:16:40;;;;;;;1.40;0.90;;;;;;;;;;4994305;28;20205;-73
2022/07/05 10:19:15;;;;;;;2.72;1.10;;;;;;;;;;4995872;28;20208;-73
2022/07/05 10:21:43;;;;;;;2.83;0.80;;;;;;;;;;4995598;28;20206;-73
2022/07/05 10:24:35;;;;;;;2.58;1.10;;;;;;;;;;4995458;28;20221;-73
2022/07/05 10:27:06;;;;;;;3.50;1.08;;;;;;;;;;4995030;28;20650;-72
2022/07/05 10:29:35;;;;;;;3.03;0.80;;;;;;;;;;4996884;28;20734;-73
2022/07/05 10:32:07;;;;;;;1.63;1.00;;;;;;;;;;4997469;28;20252;-73
2022/07/05 10:34:37;;;;;;;1.95;1.20;;;;;;;;;;4998037;28;20267;-73
2022/07/05 10:37:25;;;;;;;3.83;1.00;;;;;;;;;;5007105;28;20208;-74
2022/07/05 10:39:54;;;;;;;2.90;1.10;;;;;;;;;;4996163;28;20229;-73
2022/07/05 10:42:23;;;;;;;1.50;1.10;;;;;;;;;;4995696;28;20212;-73
2022/07/05 10:44:51;;;;;;;2.17;1.05;;;;;;;;;;4995625;28;20232;-74
2022/07/05 10:47:20;;;;;;;3.35;0.95;;;;;;;;;;4994965;28;20232;-73
2022/07/05 10:50:02;;;;;;;4.25;1.00;;;;;;;;;;4995231;28;20205;-72
2022/07/05 10:52:31;;;;;;;6.47;1.05;;;;;;;;;;4994934;28;20205;-73
2022/07/05 10:55:18;;;;;;;2.35;1.00;;;;;;;;;;4992614;28;20228;-73
2022/07/05 10:58:07;;;;;;;5.03;1.00;;;;;;;;;;4994418;28;20216;-72
2022/07/05 11:00:35;;;;;;;1.55;0.85;;;;;;;;;;4995335;28;20217;-73
2022/07/05 11:03:07;;;;;;;5.10;1.17;;;;;;;;;;4992628;28;20295;-74
2022/07/05 11:05:38;;;;;;;1.92;0.85;;;;;;;;;;4993761;28;20233;-74
2022/07/05 11:08:17;;;;;;;2.55;0.95;;;;;;;;;;4994201;28;20201;-73
2022/07/05 11:11:00;;;;;;;3.22;0.90;;;;;;;;;;4995099;28;20705;-72
2022/07/05 11:13:38;;;;;;;2.97;1.20;;;;;;;;;;4994161;28;20197;-74
2022/07/05 11:16:22;;;;;;;2.13;0.80;;;;;;;;;;4983081;28;20240;-73
2022/07/05 11:18:51;;;;;;;3.45;1.10;;;;;;;;;;4994800;28;20196;-73
2022/07/05 11:21:22;;;;;;;1.77;0.90;;;;;;;;;;4990571;28;20209;-73
2022/07/05 11:23:51;;;;;;;3.60;0.93;;;;;;;;;;4974977;28;20209;-73
2022/07/05 11:26:26;;;;;;;1.52;0.90;;;;;;;;;;4991009;28;20644;-73
2022/07/05 11:28:55;;;;;;;3.05;1.20;;;;;;;;;;4994801;28;20205;-73
2022/07/05 11:31:38;;;;;;;4.22;1.30;;;;;;;;;;4994212;28;20646;-73
2022/07/05 11:34:14;;;;;;;1.08;0.90;;;;;;;;;;4992895;28;20205;-72
2022/07/05 11:36:44;;;;;;;1.17;0.90;;;;;;;;;;4990226;28;20572;-73
2022/07/05 11:39:32;;;;;;;2.92;0.90;;;;;;;;;;4994899;28;20204;-73
2022/07/05 11:42:01;;;;;;;2.58;0.95;;;;;;;;;;4993808;28;20294;-73
2022/07/05 11:44:33;;;;;;;4.43;0.80;;;;;;;;;;4990425;28;20721;-73
2022/07/05 11:47:21;;;;;;;1.23;0.90;;;;;;;;;;4989176;28;20201;-72
2022/07/05 11:49:54;;;;;;;2.15;1.10;;;;;;;;;;4993269;28;20197;-73
2022/07/05 11:52:27;;;;;;;1.60;0.80;;;;;;;;;;4993741;28;20229;-72
2022/07/05 11:54:57;;;;;;;2.38;0.73;;;;;;;;;;4992591;28;20717;-73
2022/07/05 11:57:25;;;;;;;3.90;1.00;;;;;;;;;;4993797;28;20654;-73
2022/07/05 11:59:54;;;;;;;3.53;1.15;;;;;;;;;;4993809;28;20209;-72
2022/07/05 12:02:22;;;;;;;5.20;1.17;;;;;;;;;;4986372;28;20206;-72
2022/07/05 12:04:52;;;;;;;1.50;0.90;;;;;;;;;;4981200;28;20233;-73
2022/07/05 12:07:28;;;;;;;2.33;0.82;;;;;;;;;;4994150;28;20257;-73
2022/07/05 12:12:43;;;;;;;1.80;1.10;;;;;;;;;;4993709;28;20209;-73
2022/07/05 12:15:14;;;;;;;1.40;0.90;;;;;;;;;;4987977;28;20594;-73
2022/07/05 12:17:43;;;;;;;2.47;0.80;;;;;;;;;;4991407;28;20205;-73
2022/07/05 12:20:13;;;;;;;4.13;1.05;;;;;;;;;;4993446;28;20205;-73
2022/07/05 12:22:43;;;;;;;6.05;1.27;;;;;;;;;;4992942;28;20264;-74
2022/07/05 12:25:13;;;;;;;4.25;1.05;;;;;;;;;;4988363;28;21124;-73
2022/07/05 12:27:43;;;;;;;3.13;0.90;;;;;;;;;;4992179;28;20224;-72
2022/07/05 12:30:12;;;;;;;3.03;1.00;;;;;;;;;;4989195;28;20629;-73
2022/07/05 12:32:54;;;;;;;1.30;0.90;;;;;;;;;;4994053;28;20197;-73
2022/07/05 12:35:30;;;;;;;3.03;1.10;;;;;;;;;;4976209;28;20672;-74
2022/07/05 12:38:02;;;;;;;3.30;1.30;;;;;;;;;;4985284;28;20217;-72
2022/07/05 12:40:31;;;;;;;1.40;0.88;;;;;;;;;;4991823;28;20218;-74
2022/07/05 12:43:04;;;;;;;3.15;1.10;;;;;;;;;;4986309;28;20210;-73
2022/07/05 12:45:33;;;;;;;1.83;1.10;;;;;;;;;;4989742;28;20224;-73
2022/07/05 12:48:02;;;;;;;1.88;1.00;;;;;;;;;;4991632;28;20202;-73
2022/07/05 12:50:32;;;;;;;2.20;0.90;;;;;;;;;;4980471;28;20201;-73
2022/07/05 12:59:27;;;;;;;1.83;1.00;;;;;;;;;;4973311;28;20213;-73
2022/07/05 13:01:55;;;;;;;3.45;1.20;;;;;;;;;;4994612;28;20303;-73
2022/07/05 13:04:24;;;;;;;3.67;1.23;;;;;;;;;;4993014;28;20217;-74
2022/07/05 13:06:54;;;;;;;3.17;1.20;;;;;;;;;;4985267;28;20201;-73
2022/07/05 13:09:37;;;;;;;3.03;0.90;;;;;;;;;;4993947;28;20741;-73
2022/07/05 13:12:10;;;;;;;3.65;1.00;;;;;;;;;;4996092;28;20205;-74
2022/07/05 13:14:39;;;;;;;2.10;0.70;;;;;;;;;;4988000;28;20662;-75
2022/07/05 13:17:08;;;;;;;1.67;0.80;;;;;;;;;;4988156;28;20209;-73
2022/07/05 13:19:37;;;;;;;1.88;1.05;;;;;;;;;;4990769;28;20205;-73
2022/07/05 13:22:06;;;;;;;3.00;1.08;;;;;;;;;;4990521;28;20221;-73
2022/07/05 13:24:36;;;;;;;1.17;1.00;;;;;;;;;;4995330;28;20706;-74
2022/07/05 13:27:05;;;;;;;0.85;0.80;;;;;;;;;;4990854;28;20201;-73
2022/07/05 13:29:34;;;;;;;1.90;0.90;;;;;;;;;;4646056;28;9999703;-73
2022/07/05 13:32:03;;;;;;;3.30;1.10;;;;;;;;;;4993124;28;20205;-73
2022/07/05 13:34:32;;;;;;;2.70;0.75;;;;;;;;;;4994549;28;20229;-73
2022/07/05 13:37:01;;;;;;;0.98;0.80;;;;;;;;;;4992594;28;20217;-73
2022/07/05 13:39:30;;;;;;;1.70;0.82;;;;;;;;;;4992268;28;20212;-74
2022/07/05 13:42:01;;;;;;;1.05;0.90;;;;;;;;;;4993657;28;20235;-74
2022/07/05 13:44:29;;;;;;;3.45;1.10;;;;;;;;;;4990103;28;20256;-74
2022/07/05 13:46:57;;;;;;;1.75;0.90;;;;;;;;;;4987394;28;20202;-73
2022/07/05 13:49:26;;;;;;;1.38;0.80;;;;;;;;;;4992030;28;20263;-73
2022/07/05 13:51:56;;;;;;;1.48;0.80;;;;;;;;;;4991797;28;20275;-73
2022/07/05 13:54:25;;;;;;;1.42;0.80;;;;;;;;;;4992104;28;20220;-74
2022/07/05 13:56:53;;;;;;;1.50;1.00;;;;;;;;;;4992589;28;20513;-75
2022/07/05 13:59:23;;;;;;;2.45;1.10;;;;;;;;;;4985531;28;20212;-74
2022/07/05 14:01:52;;;;;;;2.72;1.05;;;;;;;;;;4985978;28;20228;-75
2022/07/05 14:04:23;;;;;;;3.08;0.95;;;;;;;;;;4995076;28;20219;-74
2022/07/05 14:06:51;;;;;;;2.78;0.90;;;;;;;;;;4993577;28;20209;-74
2022/07/05 14:09:20;;;;;;;0.57;0.57;;;;;;;;;;4994733;28;20697;-73
2022/07/05 14:11:55;;;;;;;1.30;1.00;;;;;;;;;;4996016;28;20189;-73
2022/07/05 14:14:25;;;;;;;2.15;1.02;;;;;;;;;;4995669;28;20220;-74
2022/07/05 14:16:54;;;;;;;1.20;0.80;;;;;;;;;;4995286;28;20224;-73
2022/07/05 14:19:22;;;;;;;1.25;0.95;;;;;;;;;;4995069;28;20197;-74
2022/07/05 14:21:51;;;;;;;2.78;0.82;;;;;;;;;;4995759;28;20225;-73
2022/07/05 14:24:19;;;;;;;2.30;1.10;;;;;;;;;;4994610;28;20216;-73
2022/07/05 14:26:48;;;;;;;1.42;0.70;;;;;;;;;;4991542;28;20209;-73
2022/07/05 14:29:16;;;;;;;1.42;0.77;;;;;;;;;;4993689;28;20713;-74
2022/07/05 14:31:46;;;;;;;0.77;0.73;;;;;;;;;;4996304;28;20284;-73
2022/07/05 14:34:15;;;;;;;3.22;1.10;;;;;;;;;;4996024;28;20201;-73
2022/07/05 14:36:43;;;;;;;1.42;0.90;;;;;;;;;;4995130;28;20209;-74
2022/07/05 14:39:12;;;;;;;2.03;0.98;;;;;;;;;;4995187;28;20228;-74
2022/07/05 14:41:46;;;;;;;3.50;0.85;;;;;;;;;;4995146;28;20259;-73
2022/07/05 14:44:15;;;;;;;2.28;1.02;;;;;;;;;;4992677;28;20208;-73
2022/07/05 14:46:43;;;;;;;2.00;0.82;;;;;;;;;;4994639;28;20213;-73
2022/07/05 14:49:13;;;;;;;2.85;0.90;;;;;;;;;;4989968;28;20209;-73
2022/07/05 14:51:42;;;;;;;0.75;0.75;;;;;;;;;;4993405;28;20256;-73
2022/07/05 14:54:10;;;;;;;1.17;1.00;;;;;;;;;;4988417;28;20215;-73
2022/07/05 14:56:38;;;;;;;3.13;1.20;;;;;;;;;;4994268;28;20666;-73
2022/07/05 14:59:07;;;;;;;1.15;0.80;;;;;;;;;;4992479;28;20197;-73
2022/07/05 15:01:36;;;;;;;0.88;0.80;;;;;;;;;;4995259;28;20284;-73
2022/07/05 15:04:04;;;;;;;3.08;1.70;;;;;;;;;;4994094;28;20208;-73
2022/07/05 15:06:39;;;;;;;2.65;1.08;;;;;;;;;;4993407;28;20209;-74
2022/07/05 15:09:08;;;;;;;3.38;1.05;;;;;;;;;;4991111;28;20205;-74
2022/07/05 15:11:37;;;;;;;3.15;1.30;;;;;;;;;;4990757;28;20576;-74
2022/07/05 15:14:05;;;;;;;1.80;1.10;;;;;;;;;;4992881;28;20205;-73
2022/07/05 15:16:35;;;;;;;1.63;1.00;;;;;;;;;;4993601;28;20669;-74
2022/07/05 15:19:03;;;;;;;2.83;1.00;;;;;;;;;;4993071;28;20208;-74
2022/07/05 15:21:32;;;;;;;0.80;0.77;;;;;;;;;;4990367;28;20213;-74